sensor_id;sensor_type;location;lat;lon;timestamp;pressure;altitude;pressure_sealevel;temperature
19568;BMP280;9930;49.240;8.548;2023-07-28T00:02:05;99699.00;;;23.29
19568;BMP280;9930;49.240;8.548;2023-07-28T00:04:31;99706.69;;;23.33
19568;BMP280;9930;49.240;8.548;2023-07-28T00:06:57;99716.25;;;23.33
19568;BMP280;9930;49.240;8.548;2023-07-28T00:09:29;99709.44;;;23.27
19568;BMP280;9930;49.240;8.548;2023-07-28T00:12:02;99713.88;;;23.23
19568;BMP280;9930;49.240;8.548;2023-07-28T00:14:29;99720.63;;;23.31
19568;BMP280;9930;49.240;8.548;2023-07-28T00:17:00;99718.84;;;23.33
19568;BMP280;9930;49.240;8.548;2023-07-28T00:19:25;99719.66;;;23.35
19568;BMP280;9930;49.240;8.548;2023-07-28T00:21:53;99711.97;;;23.30
19568;BMP280;9930;49.240;8.548;2023-07-28T00:24:22;99726.56;;;23.36
19568;BMP280;9930;49.240;8.548;2023-07-28T00:26:49;99710.25;;;23.29
19568;BMP280;9930;49.240;8.548;2023-07-28T00:29:17;99725.69;;;23.37
19568;BMP280;9930;49.240;8.548;2023-07-28T00:31:43;99724.81;;;23.36
19568;BMP280;9930;49.240;8.548;2023-07-28T00:34:09;99716.97;;;23.38
19568;BMP280;9930;49.240;8.548;2023-07-28T00:36:35;99715.22;;;23.38
19568;BMP280;9930;49.240;8.548;2023-07-28T00:39:00;99720.44;;;23.38
19568;BMP280;9930;49.240;8.548;2023-07-28T00:41:26;99718.72;;;23.37
19568;BMP280;9930;49.240;8.548;2023-07-28T00:43:52;99715.28;;;23.37
19568;BMP280;9930;49.240;8.548;2023-07-28T00:46:18;99715.22;;;23.38
19568;BMP280;9930;49.240;8.548;2023-07-28T00:48:44;99694.56;;;23.32
19568;BMP280;9930;49.240;8.548;2023-07-28T00:51:11;99696.28;;;23.33
19568;BMP280;9930;49.240;8.548;2023-07-28T00:53:38;99704.78;;;23.40
19568;BMP280;9930;49.240;8.548;2023-07-28T00:56:05;99706.53;;;23.39
19568;BMP280;9930;49.240;8.548;2023-07-28T00:58:31;99704.78;;;23.40
19568;BMP280;9930;49.240;8.548;2023-07-28T01:00:57;99701.31;;;23.39
19568;BMP280;9930;49.240;8.548;2023-07-28T01:03:25;99694.31;;;23.41
19568;BMP280;9930;49.240;8.548;2023-07-28T01:06:26;99690.19;;;23.34
19568;BMP280;9930;49.240;8.548;2023-07-28T01:09:03;99697.97;;;23.34
19568;BMP280;9930;49.240;8.548;2023-07-28T01:11:32;99693.75;;;23.30
19568;BMP280;9930;49.240;8.548;2023-07-28T01:14:00;99697.00;;;23.38
19568;BMP280;9930;49.240;8.548;2023-07-28T01:16:30;99698.03;;;23.33
19568;BMP280;9930;49.240;8.548;2023-07-28T01:18:56;99704.03;;;23.35
19568;BMP280;9930;49.240;8.548;2023-07-28T01:21:30;99704.03;;;23.35
19568;BMP280;9930;49.240;8.548;2023-07-28T01:24:21;99692.94;;;23.28
19568;BMP280;9930;49.240;8.548;2023-07-28T01:26:51;99690.38;;;23.26
19568;BMP280;9930;49.240;8.548;2023-07-28T01:29:17;99696.41;;;23.29
19568;BMP280;9930;49.240;8.548;2023-07-28T01:31:47;99693.72;;;23.32
19568;BMP280;9930;49.240;8.548;2023-07-28T01:34:13;99708.34;;;23.36
19568;BMP280;9930;49.240;8.548;2023-07-28T01:36:41;99702.28;;;23.35
19568;BMP280;9930;49.240;8.548;2023-07-28T01:39:07;99691.00;;;23.36
19568;BMP280;9930;49.240;8.548;2023-07-28T01:41:34;99687.50;;;23.37
19568;BMP280;9930;49.240;8.548;2023-07-28T01:44:00;99684.03;;;23.37
19568;BMP280;9930;49.240;8.548;2023-07-28T01:46:28;99683.19;;;23.36
19568;BMP280;9930;49.240;8.548;2023-07-28T01:48:55;99691.00;;;23.36
19568;BMP280;9930;49.240;8.548;2023-07-28T01:51:21;99685.78;;;23.36
19568;BMP280;9930;49.240;8.548;2023-07-28T01:53:46;99691.00;;;23.36
19568;BMP280;9930;49.240;8.548;2023-07-28T01:56:14;99692.75;;;23.36
19568;BMP280;9930;49.240;8.548;2023-07-28T01:58:40;99699.69;;;23.35
19568;BMP280;9930;49.240;8.548;2023-07-28T02:01:09;99697.91;;;23.37
19568;BMP280;9930;49.240;8.548;2023-07-28T02:03:38;99685.06;;;23.31
19568;BMP280;9930;49.240;8.548;2023-07-28T02:06:04;99683.31;;;23.32
19568;BMP280;9930;49.240;8.548;2023-07-28T02:08:34;99690.06;;;23.39
19568;BMP280;9930;49.240;8.548;2023-07-28T02:11:02;99693.59;;;23.36
19568;BMP280;9930;49.240;8.548;2023-07-28T02:13:28;99695.22;;;23.40
19568;BMP280;9930;49.240;8.548;2023-07-28T02:15:58;99679.78;;;23.34
19568;BMP280;9930;49.240;8.548;2023-07-28T02:18:24;99688.31;;;23.39
19568;BMP280;9930;49.240;8.548;2023-07-28T02:20:49;99683.09;;;23.39
19568;BMP280;9930;49.240;8.548;2023-07-28T02:23:17;99685.72;;;23.39
19568;BMP280;9930;49.240;8.548;2023-07-28T02:25:45;99684.00;;;23.38
19568;BMP280;9930;49.240;8.548;2023-07-28T02:28:11;99677.97;;;23.36
19568;BMP280;9930;49.240;8.548;2023-07-28T02:30:38;99677.28;;;23.30
19568;BMP280;9930;49.240;8.548;2023-07-28T02:33:06;99670.38;;;23.29
19568;BMP280;9930;49.240;8.548;2023-07-28T02:35:32;99669.53;;;23.28
19568;BMP280;9930;49.240;8.548;2023-07-28T02:38:04;99685.94;;;23.30
19568;BMP280;9930;49.240;8.548;2023-07-28T02:40:32;99681.72;;;23.26
19568;BMP280;9930;49.240;8.548;2023-07-28T02:43:00;99682.66;;;23.23
19568;BMP280;9930;49.240;8.548;2023-07-28T02:45:26;99694.66;;;23.29
19568;BMP280;9930;49.240;8.548;2023-07-28T02:47:54;99681.84;;;23.21
19568;BMP280;9930;49.240;8.548;2023-07-28T02:50:20;99692.97;;;23.26
19568;BMP280;9930;49.240;8.548;2023-07-28T02:52:47;99689.53;;;23.26
19568;BMP280;9930;49.240;8.548;2023-07-28T02:55:13;99690.38;;;23.26
19568;BMP280;9930;49.240;8.548;2023-07-28T02:57:41;99695.56;;;23.26
19568;BMP280;9930;49.240;8.548;2023-07-28T03:00:10;99699.13;;;23.24
19568;BMP280;9930;49.240;8.548;2023-07-28T03:02:40;99708.63;;;23.25
19568;BMP280;9930;49.240;8.548;2023-07-28T03:05:06;99703.53;;;23.20
19568;BMP280;9930;49.240;8.548;2023-07-28T03:07:34;99709.59;;;23.21
19568;BMP280;9930;49.240;8.548;2023-07-28T03:09:59;99714.72;;;23.24
19568;BMP280;9930;49.240;8.548;2023-07-28T03:12:27;99723.34;;;23.26
19568;BMP280;9930;49.240;8.548;2023-07-28T03:14:53;99712.94;;;23.26
19568;BMP280;9930;49.240;8.548;2023-07-28T03:17:19;99702.59;;;23.23
19568;BMP280;9930;49.240;8.548;2023-07-28T03:19:46;99698.19;;;23.26
19568;BMP280;9930;49.240;8.548;2023-07-28T03:22:14;99693.09;;;23.22
19568;BMP280;9930;49.240;8.548;2023-07-28T03:24:40;99695.66;;;23.23
19568;BMP280;9930;49.240;8.548;2023-07-28T03:27:11;99709.31;;;23.32
19568;BMP280;9930;49.240;8.548;2023-07-28T03:29:39;99706.03;;;23.25
19568;BMP280;9930;49.240;8.548;2023-07-28T03:32:09;99696.47;;;23.25
19568;BMP280;9930;49.240;8.548;2023-07-28T03:34:36;99710.22;;;23.31
19568;BMP280;9930;49.240;8.548;2023-07-28T03:37:02;99701.59;;;23.29
19568;BMP280;9930;49.240;8.548;2023-07-28T03:39:28;99692.13;;;23.26
19568;BMP280;9930;49.240;8.548;2023-07-28T03:41:56;99709.38;;;23.30
19568;BMP280;9930;49.240;8.548;2023-07-28T03:44:25;99699.94;;;23.26
19568;BMP280;9930;49.240;8.548;2023-07-28T03:46:50;99707.59;;;23.32
19568;BMP280;9930;49.240;8.548;2023-07-28T03:49:19;99709.28;;;23.33
19568;BMP280;9930;49.240;8.548;2023-07-28T03:51:44;99711.03;;;23.33
19568;BMP280;9930;49.240;8.548;2023-07-28T03:54:12;99702.38;;;23.32
19568;BMP280;9930;49.240;8.548;2023-07-28T03:56:40;99716.34;;;23.28
19568;BMP280;9930;49.240;8.548;2023-07-28T03:59:06;99714.53;;;23.32
19568;BMP280;9930;49.240;8.548;2023-07-28T04:01:31;99710.38;;;23.24
19568;BMP280;9930;49.240;8.548;2023-07-28T04:03:57;99724.16;;;23.28
19568;BMP280;9930;49.240;8.548;2023-07-28T04:06:46;99726.75;;;23.28
19568;BMP280;9930;49.240;8.548;2023-07-28T04:09:16;99723.47;;;23.21
19568;BMP280;9930;49.240;8.548;2023-07-28T04:11:43;99726.06;;;23.21
19568;BMP280;9930;49.240;8.548;2023-07-28T04:14:12;99726.00;;;23.24
19568;BMP280;9930;49.240;8.548;2023-07-28T04:16:40;99726.00;;;23.24
19568;BMP280;9930;49.240;8.548;2023-07-28T04:19:06;99724.28;;;23.23
19568;BMP280;9930;49.240;8.548;2023-07-28T04:21:32;99719.22;;;23.17
19568;BMP280;9930;49.240;8.548;2023-07-28T04:24:02;99732.97;;;23.22
19568;BMP280;9930;49.240;8.548;2023-07-28T04:26:28;99726.09;;;23.20
19568;BMP280;9930;49.240;8.548;2023-07-28T04:28:53;99731.34;;;23.18
19568;BMP280;9930;49.240;8.548;2023-07-28T04:31:19;99734.84;;;23.17
19568;BMP280;9930;49.240;8.548;2023-07-28T04:33:47;99740.91;;;23.18
19568;BMP280;9930;49.240;8.548;2023-07-28T04:36:13;99733.97;;;23.17
19568;BMP280;9930;49.240;8.548;2023-07-28T04:38:42;99718.59;;;23.08
19568;BMP280;9930;49.240;8.548;2023-07-28T04:41:09;99741.03;;;23.12
19568;BMP280;9930;49.240;8.548;2023-07-28T04:43:35;99744.41;;;23.15
19568;BMP280;9930;49.240;8.548;2023-07-28T04:46:01;99738.50;;;23.09
19568;BMP280;9930;49.240;8.548;2023-07-28T04:48:38;99750.47;;;23.16
19568;BMP280;9930;49.240;8.548;2023-07-28T04:51:12;99750.53;;;23.14
19568;BMP280;9930;49.240;8.548;2023-07-28T04:53:39;99743.59;;;23.13
19568;BMP280;9930;49.240;8.548;2023-07-28T04:56:07;99738.56;;;23.07
19568;BMP280;9930;49.240;8.548;2023-07-28T04:58:36;99737.69;;;23.07
19568;BMP280;9930;49.240;8.548;2023-07-28T05:01:02;99748.84;;;23.12
19568;BMP280;9930;49.240;8.548;2023-07-28T05:03:28;99738.50;;;23.09
19568;BMP280;9930;49.240;8.548;2023-07-28T05:05:53;99748.81;;;23.13
19568;BMP280;9930;49.240;8.548;2023-07-28T05:08:22;99738.47;;;23.10
19568;BMP280;9930;49.240;8.548;2023-07-28T05:10:47;99752.19;;;23.17
19568;BMP280;9930;49.240;8.548;2023-07-28T05:13:13;99741.09;;;23.10
19568;BMP280;9930;49.240;8.548;2023-07-28T05:15:39;99751.34;;;23.16
19568;BMP280;9930;49.240;8.548;2023-07-28T05:18:05;99744.53;;;23.11
19568;BMP280;9930;49.240;8.548;2023-07-28T05:20:34;99747.09;;;23.12
19568;BMP280;9930;49.240;8.548;2023-07-28T05:23:02;99754.78;;;23.17
19568;BMP280;9930;49.240;8.548;2023-07-28T05:25:27;99742.75;;;23.13
19568;BMP280;9930;49.240;8.548;2023-07-28T05:27:55;99747.84;;;23.17
19568;BMP280;9930;49.240;8.548;2023-07-28T05:30:21;99753.00;;;23.19
19568;BMP280;9930;49.240;8.548;2023-07-28T05:32:49;99753.09;;;23.16
19568;BMP280;9930;49.240;8.548;2023-07-28T05:35:15;99757.31;;;23.20
19568;BMP280;9930;49.240;8.548;2023-07-28T05:37:41;99755.59;;;23.19
19568;BMP280;9930;49.240;8.548;2023-07-28T05:40:11;99755.56;;;23.20
19568;BMP280;9930;49.240;8.548;2023-07-28T05:42:38;99759.13;;;23.16
19568;BMP280;9930;49.240;8.548;2023-07-28T05:45:06;99753.97;;;23.15
19568;BMP280;9930;49.240;8.548;2023-07-28T05:47:32;99764.22;;;23.21
19568;BMP280;9930;49.240;8.548;2023-07-28T05:49:57;99753.94;;;23.16
19568;BMP280;9930;49.240;8.548;2023-07-28T05:52:23;99760.84;;;23.17
19568;BMP280;9930;49.240;8.548;2023-07-28T05:54:49;99765.09;;;23.21
19568;BMP280;9930;49.240;8.548;2023-07-28T05:57:14;99765.91;;;23.23
19568;BMP280;9930;49.240;8.548;2023-07-28T05:59:42;99771.06;;;23.25
19568;BMP280;9930;49.240;8.548;2023-07-28T06:02:11;99765.97;;;23.20
19568;BMP280;9930;49.240;8.548;2023-07-28T06:04:37;99753.09;;;23.16
19568;BMP280;9930;49.240;8.548;2023-07-28T06:07:02;99768.53;;;23.22
19568;BMP280;9930;49.240;8.548;2023-07-28T06:09:30;99766.91;;;23.18
19568;BMP280;9930;49.240;8.548;2023-07-28T06:11:56;99784.78;;;23.32
19568;BMP280;9930;49.240;8.548;2023-07-28T06:14:24;99791.69;;;23.33
19568;BMP280;9930;49.240;8.548;2023-07-28T06:16:52;99770.19;;;23.26
19568;BMP280;9930;49.240;8.548;2023-07-28T06:19:18;99783.84;;;23.34
19568;BMP280;9930;49.240;8.548;2023-07-28T06:21:50;99786.41;;;23.36
19568;BMP280;9930;49.240;8.548;2023-07-28T06:24:21;99793.31;;;23.38
19568;BMP280;9930;49.240;8.548;2023-07-28T06:26:46;99801.97;;;23.39
19568;BMP280;9930;49.240;8.548;2023-07-28T06:29:15;99806.22;;;23.41
19568;BMP280;9930;49.240;8.548;2023-07-28T06:31:45;99802.69;;;23.44
19568;BMP280;9930;49.240;8.548;2023-07-28T06:34:13;99800.91;;;23.46
19568;BMP280;9930;49.240;8.548;2023-07-28T06:36:40;99803.47;;;23.47
19568;BMP280;9930;49.240;8.548;2023-07-28T06:39:09;99795.81;;;23.41
19568;BMP280;9930;49.240;8.548;2023-07-28T06:41:39;99808.53;;;23.53
19568;BMP280;9930;49.240;8.548;2023-07-28T06:44:05;99812.88;;;23.54
19568;BMP280;9930;49.240;8.548;2023-07-28T06:46:36;99818.81;;;23.60
19568;BMP280;9930;49.240;8.548;2023-07-28T06:49:04;99822.16;;;23.65
19568;BMP280;9930;49.240;8.548;2023-07-28T06:51:34;99824.63;;;23.71
19568;BMP280;9930;49.240;8.548;2023-07-28T06:54:00;99828.00;;;23.74
19568;BMP280;9930;49.240;8.548;2023-07-28T06:56:26;99824.56;;;23.72
19568;BMP280;9930;49.240;8.548;2023-07-28T06:58:52;99826.94;;;23.81
19568;BMP280;9930;49.240;8.548;2023-07-28T07:01:17;99821.81;;;23.78
19568;BMP280;9930;49.240;8.548;2023-07-28T07:03:43;99838.94;;;23.87
19568;BMP280;9930;49.240;8.548;2023-07-28T07:06:09;99833.66;;;23.90
19568;BMP280;9930;49.240;8.548;2023-07-28T07:08:35;99848.34;;;23.93
19568;BMP280;9930;49.240;8.548;2023-07-28T07:11:01;99832.84;;;23.88
19568;BMP280;9930;49.240;8.548;2023-07-28T07:13:27;99852.63;;;23.95
19568;BMP280;9930;49.240;8.548;2023-07-28T07:15:54;99843.03;;;23.97
19568;BMP280;9930;49.240;8.548;2023-07-28T07:18:20;99854.25;;;23.99
19568;BMP280;9930;49.240;8.548;2023-07-28T07:20:46;99841.41;;;23.93
19568;BMP280;9930;49.240;8.548;2023-07-28T07:23:14;99856.00;;;23.99
19568;BMP280;9930;49.240;8.548;2023-07-28T07:25:40;99856.88;;;23.99
19568;BMP280;9930;49.240;8.548;2023-07-28T07:28:05;99849.22;;;23.93
19568;BMP280;9930;49.240;8.548;2023-07-28T07:30:41;99861.25;;;23.97
19568;BMP280;9930;49.240;8.548;2023-07-28T07:33:14;99867.22;;;24.02
19568;BMP280;9930;49.240;8.548;2023-07-28T07:35:45;99862.00;;;24.02
19568;BMP280;9930;49.240;8.548;2023-07-28T07:38:11;99858.50;;;24.03
19568;BMP280;9930;49.240;8.548;2023-07-28T07:40:40;99868.69;;;24.12
19568;BMP280;9930;49.240;8.548;2023-07-28T07:43:05;99859.09;;;24.13
19568;BMP280;9930;49.240;8.548;2023-07-28T07:45:33;99866.72;;;24.20
19568;BMP280;9930;49.240;8.548;2023-07-28T07:47:59;99881.28;;;24.29
19568;BMP280;9930;49.240;8.548;2023-07-28T07:50:27;99878.59;;;24.32
19568;BMP280;9930;49.240;8.548;2023-07-28T07:52:53;99876.81;;;24.34
19568;BMP280;9930;49.240;8.548;2023-07-28T07:55:19;99874.31;;;24.30
19568;BMP280;9930;49.240;8.548;2023-07-28T07:57:44;99884.63;;;24.34
19568;BMP280;9930;49.240;8.548;2023-07-28T08:00:11;99887.09;;;24.39
19568;BMP280;9930;49.240;8.548;2023-07-28T08:02:39;99885.31;;;24.41
19568;BMP280;9930;49.240;8.548;2023-07-28T08:05:09;99875.78;;;24.40
19568;BMP280;9930;49.240;8.548;2023-07-28T08:07:35;99886.00;;;24.47
19568;BMP280;9930;49.240;8.548;2023-07-28T08:10:01;99892.75;;;24.54
19568;BMP280;9930;49.240;8.548;2023-07-28T08:12:28;99881.16;;;24.65
19568;BMP280;9930;49.240;8.548;2023-07-28T08:14:56;99889.44;;;24.79
19568;BMP280;9930;49.240;8.548;2023-07-28T08:17:24;99883.97;;;24.88
19568;BMP280;9930;49.240;8.548;2023-07-28T08:19:50;99887.81;;;25.06
19568;BMP280;9930;49.240;8.548;2023-07-28T08:22:16;99875.44;;;25.12
19568;BMP280;9930;49.240;8.548;2023-07-28T08:24:44;99895.09;;;25.24
19568;BMP280;9930;49.240;8.548;2023-07-28T08:27:10;99902.53;;;25.36
19568;BMP280;9930;49.240;8.548;2023-07-28T08:29:35;99892.00;;;25.39
19568;BMP280;9930;49.240;8.548;2023-07-28T08:32:04;99888.34;;;25.45
19568;BMP280;9930;49.240;8.548;2023-07-28T08:34:29;99906.19;;;25.59
19568;BMP280;9930;49.240;8.548;2023-07-28T08:36:55;99901.75;;;25.61
19568;BMP280;9930;49.240;8.548;2023-07-28T08:39:23;99904.75;;;25.76
19568;BMP280;9930;49.240;8.548;2023-07-28T08:41:59;99898.59;;;25.79
19568;BMP280;9930;49.240;8.548;2023-07-28T08:44:25;99913.16;;;25.86
19568;BMP280;9930;49.240;8.548;2023-07-28T08:46:52;99909.69;;;25.86
19568;BMP280;9930;49.240;8.548;2023-07-28T08:49:17;99917.63;;;25.83
19568;BMP280;9930;49.240;8.548;2023-07-28T08:51:49;99912.44;;;25.81
19568;BMP280;9930;49.240;8.548;2023-07-28T08:54:18;99904.91;;;25.72
19568;BMP280;9930;49.240;8.548;2023-07-28T08:56:44;99902.25;;;25.73
19568;BMP280;9930;49.240;8.548;2023-07-28T08:59:20;99914.25;;;25.79
19568;BMP280;9930;49.240;8.548;2023-07-28T09:01:46;99905.56;;;25.78
19568;BMP280;9930;49.240;8.548;2023-07-28T09:04:14;99910.34;;;25.92
19568;BMP280;9930;49.240;8.548;2023-07-28T09:06:45;99908.06;;;26.06
19568;BMP280;9930;49.240;8.548;2023-07-28T09:09:11;99912.72;;;26.23
19568;BMP280;9930;49.240;8.548;2023-07-28T09:11:51;99910.41;;;26.40
19568;BMP280;9930;49.240;8.548;2023-07-28T09:14:19;99911.84;;;26.49
19568;BMP280;9930;49.240;8.548;2023-07-28T09:16:46;99901.28;;;26.52
19568;BMP280;9930;49.240;8.548;2023-07-28T09:19:15;99914.81;;;26.63
19568;BMP280;9930;49.240;8.548;2023-07-28T09:21:44;99911.88;;;26.72
19568;BMP280;9930;49.240;8.548;2023-07-28T09:24:13;99912.31;;;26.84
19568;BMP280;9930;49.240;8.548;2023-07-28T09:26:47;99914.59;;;26.93
19568;BMP280;9930;49.240;8.548;2023-07-28T09:29:18;99912.47;;;27.04
19568;BMP280;9930;49.240;8.548;2023-07-28T09:31:48;99907.72;;;27.14
19568;BMP280;9930;49.240;8.548;2023-07-28T09:34:29;99898.00;;;27.17
19568;BMP280;9930;49.240;8.548;2023-07-28T09:36:59;99897.13;;;27.17
19568;BMP280;9930;49.240;8.548;2023-07-28T09:39:26;99907.38;;;27.23
19568;BMP280;9930;49.240;8.548;2023-07-28T09:41:52;99906.69;;;27.18
19568;BMP280;9930;49.240;8.548;2023-07-28T09:44:18;99908.56;;;27.14
19568;BMP280;9930;49.240;8.548;2023-07-28T09:46:50;99907.09;;;27.07
19568;BMP280;9930;49.240;8.548;2023-07-28T09:49:35;99912.69;;;26.98
19568;BMP280;9930;49.240;8.548;2023-07-28T09:52:08;99913.81;;;26.91
19568;BMP280;9930;49.240;8.548;2023-07-28T09:54:45;99910.44;;;26.87
19568;BMP280;9930;49.240;8.548;2023-07-28T09:57:19;99911.47;;;26.83
19568;BMP280;9930;49.240;8.548;2023-07-28T09:59:47;99910.50;;;26.86
19568;BMP280;9930;49.240;8.548;2023-07-28T10:02:14;99915.69;;;26.87
19568;BMP280;9930;49.240;8.548;2023-07-28T10:04:43;99911.31;;;26.88
19568;BMP280;9930;49.240;8.548;2023-07-28T10:07:10;99910.50;;;26.86
19568;BMP280;9930;49.240;8.548;2023-07-28T10:09:36;99913.81;;;26.91
19568;BMP280;9930;49.240;8.548;2023-07-28T10:12:04;99913.63;;;26.95
19568;BMP280;9930;49.240;8.548;2023-07-28T10:14:36;99911.06;;;26.94
19568;BMP280;9930;49.240;8.548;2023-07-28T10:17:06;99917.16;;;26.94
19568;BMP280;9930;49.240;8.548;2023-07-28T10:19:38;99916.69;;;26.83
19568;BMP280;9930;49.240;8.548;2023-07-28T10:22:12;99909.06;;;26.77
19568;BMP280;9930;49.240;8.548;2023-07-28T10:24:56;99910.97;;;26.73
19568;BMP280;9930;49.240;8.548;2023-07-28T10:30:02;99906.81;;;26.68
19568;BMP280;9930;49.240;8.548;2023-07-28T10:32:40;99907.53;;;26.71
19568;BMP280;9930;49.240;8.548;2023-07-28T10:35:24;99920.13;;;26.85
19568;BMP280;9930;49.240;8.548;2023-07-28T10:37:50;99924.09;;;26.95
19568;BMP280;9930;49.240;8.548;2023-07-28T10:40:36;99916.97;;;27.00
19568;BMP280;9930;49.240;8.548;2023-07-28T10:43:05;99927.69;;;27.16
19568;BMP280;9930;49.240;8.548;2023-07-28T10:45:33;99930.81;;;27.26
19568;BMP280;9930;49.240;8.548;2023-07-28T10:48:02;99926.66;;;27.20
19568;BMP280;9930;49.240;8.548;2023-07-28T10:50:32;99919.00;;;27.16
19568;BMP280;9930;49.240;8.548;2023-07-28T10:52:58;99921.66;;;27.14
19568;BMP280;9930;49.240;8.548;2023-07-28T10:55:27;99925.25;;;27.12
19568;BMP280;9930;49.240;8.548;2023-07-28T10:57:55;99927.75;;;27.15
19568;BMP280;9930;49.240;8.548;2023-07-28T11:00:24;99927.06;;;27.09
19568;BMP280;9930;49.240;8.548;2023-07-28T11:02:54;99932.19;;;27.13
19568;BMP280;9930;49.240;8.548;2023-07-28T11:05:25;99938.41;;;27.10
19568;BMP280;9930;49.240;8.548;2023-07-28T11:07:55;99940.47;;;27.02
19568;BMP280;9930;49.240;8.548;2023-07-28T11:10:21;99937.19;;;26.95
19568;BMP280;9930;49.240;8.548;2023-07-28T11:12:49;99925.34;;;26.85
19568;BMP280;9930;49.240;8.548;2023-07-28T11:15:19;99922.97;;;26.79
19568;BMP280;9930;49.240;8.548;2023-07-28T11:17:51;99930.63;;;26.84
19568;BMP280;9930;49.240;8.548;2023-07-28T11:20:26;99927.13;;;26.85
19568;BMP280;9930;49.240;8.548;2023-07-28T11:23:04;99927.13;;;26.85
19568;BMP280;9930;49.240;8.548;2023-07-28T11:25:34;99934.84;;;26.88
19568;BMP280;9930;49.240;8.548;2023-07-28T11:28:03;99934.75;;;26.91
19568;BMP280;9930;49.240;8.548;2023-07-28T11:30:36;99939.78;;;26.97
19568;BMP280;9930;49.240;8.548;2023-07-28T11:33:07;99928.59;;;26.92
19568;BMP280;9930;49.240;8.548;2023-07-28T11:35:37;99927.78;;;26.90
19568;BMP280;9930;49.240;8.548;2023-07-28T11:38:06;99939.91;;;26.92
19568;BMP280;9930;49.240;8.548;2023-07-28T11:40:36;99933.94;;;26.89
19568;BMP280;9930;49.240;8.548;2023-07-28T11:43:04;99939.06;;;26.92
19568;BMP280;9930;49.240;8.548;2023-07-28T11:45:30;99936.50;;;26.90
19568;BMP280;9930;49.240;8.548;2023-07-28T11:50:28;99939.28;;;26.86
19568;BMP280;9930;49.240;8.548;2023-07-28T11:52:58;99942.94;;;26.82
19568;BMP280;9930;49.240;8.548;2023-07-28T11:55:29;99947.41;;;26.78
19568;BMP280;9930;49.240;8.548;2023-07-28T11:57:55;99947.47;;;26.76
19568;BMP280;9930;49.240;8.548;2023-07-28T12:00:39;99946.91;;;26.68
19568;BMP280;9930;49.240;8.548;2023-07-28T12:03:12;99950.41;;;26.67
19568;BMP280;9930;49.240;8.548;2023-07-28T12:05:58;99952.41;;;26.61
19568;BMP280;9930;49.240;8.548;2023-07-28T12:08:42;99948.06;;;26.60
19568;BMP280;9930;49.240;8.548;2023-07-28T12:11:14;99944.03;;;26.51
19568;BMP280;9930;49.240;8.548;2023-07-28T12:13:52;99937.03;;;26.52
19568;BMP280;9930;49.240;8.548;2023-07-28T12:16:47;99945.56;;;26.57
19568;BMP280;9930;49.240;8.548;2023-07-28T12:19:13;99950.81;;;26.57
19568;BMP280;9930;49.240;8.548;2023-07-28T12:21:40;99952.47;;;26.59
19568;BMP280;9930;49.240;8.548;2023-07-28T12:24:09;99954.28;;;26.57
19568;BMP280;9930;49.240;8.548;2023-07-28T12:26:35;99952.72;;;26.52
19568;BMP280;9930;49.240;8.548;2023-07-28T12:29:01;99962.38;;;26.50
19568;BMP280;9930;49.240;8.548;2023-07-28T12:31:26;99959.13;;;26.43
19568;BMP280;9930;49.240;8.548;2023-07-28T12:33:52;99955.03;;;26.36
19568;BMP280;9930;49.240;8.548;2023-07-28T12:36:20;99958.59;;;26.33
19568;BMP280;9930;49.240;8.548;2023-07-28T12:38:46;99961.34;;;26.29
19568;BMP280;9930;49.240;8.548;2023-07-28T12:41:13;99946.81;;;26.20
19568;BMP280;9930;49.240;8.548;2023-07-28T12:43:40;99957.38;;;26.17
19568;BMP280;9930;49.240;8.548;2023-07-28T12:46:09;99958.34;;;26.14
19568;BMP280;9930;49.240;8.548;2023-07-28T12:48:37;99967.03;;;26.15
19568;BMP280;9930;49.240;8.548;2023-07-28T12:51:06;99960.25;;;26.09
19568;BMP280;9930;49.240;8.548;2023-07-28T12:53:34;99963.75;;;26.08
19568;BMP280;9930;49.240;8.548;2023-07-28T12:56:02;99970.56;;;26.14
19568;BMP280;9930;49.240;8.548;2023-07-28T12:58:28;99974.00;;;26.14
19568;BMP280;9930;49.240;8.548;2023-07-28T13:00:54;99972.22;;;26.17
19568;BMP280;9930;49.240;8.548;2023-07-28T13:03:22;99972.25;;;26.15
19568;BMP280;9930;49.240;8.548;2023-07-28T13:05:48;99977.38;;;26.18
19568;BMP280;9930;49.240;8.548;2023-07-28T13:08:16;99979.13;;;26.18
19568;BMP280;9930;49.240;8.548;2023-07-28T13:10:42;99972.31;;;26.13
19568;BMP280;9930;49.240;8.548;2023-07-28T13:13:12;99975.81;;;26.12
19568;BMP280;9930;49.240;8.548;2023-07-28T13:15:39;99976.13;;;26.03
19568;BMP280;9930;49.240;8.548;2023-07-28T13:18:05;99972.00;;;25.98
19568;BMP280;9930;49.240;8.548;2023-07-28T13:20:31;99986.78;;;25.99
19568;BMP280;9930;49.240;8.548;2023-07-28T13:22:57;99973.09;;;25.91
19568;BMP280;9930;49.240;8.548;2023-07-28T13:25:22;99980.19;;;25.87
19568;BMP280;9930;49.240;8.548;2023-07-28T13:27:48;99979.38;;;25.85
19568;BMP280;9930;49.240;8.548;2023-07-28T13:30:16;99983.88;;;25.80
19568;BMP280;9930;49.240;8.548;2023-07-28T13:32:41;99974.53;;;25.73
19568;BMP280;9930;49.240;8.548;2023-07-28T13:35:07;99977.09;;;25.74
19568;BMP280;9930;49.240;8.548;2023-07-28T13:37:39;99978.19;;;25.67
19568;BMP280;9930;49.240;8.548;2023-07-28T13:40:06;99979.16;;;25.65
19568;BMP280;9930;49.240;8.548;2023-07-28T13:42:32;99969.81;;;25.56
19568;BMP280;9930;49.240;8.548;2023-07-28T13:44:57;99961.22;;;25.53
19568;BMP280;9930;49.240;8.548;2023-07-28T13:47:23;99969.72;;;25.59
19568;BMP280;9930;49.240;8.548;2023-07-28T13:49:49;99960.16;;;25.58
19568;BMP280;9930;49.240;8.548;2023-07-28T13:52:15;99964.44;;;25.61
19568;BMP280;9930;49.240;8.548;2023-07-28T13:54:43;99960.91;;;25.62
19568;BMP280;9930;49.240;8.548;2023-07-28T13:57:10;99941.06;;;25.56
19568;BMP280;9930;49.240;8.548;2023-07-28T13:59:37;99941.75;;;25.63
19568;BMP280;9930;49.240;8.548;2023-07-28T14:02:03;99951.28;;;25.64
19568;BMP280;9930;49.240;8.548;2023-07-28T14:04:28;99947.91;;;25.60
19568;BMP280;9930;49.240;8.548;2023-07-28T14:06:59;99943.44;;;25.64
19568;BMP280;9930;49.240;8.548;2023-07-28T14:09:24;99951.97;;;25.70
19568;BMP280;9930;49.240;8.548;2023-07-28T14:11:55;99953.84;;;25.67
19568;BMP280;9930;49.240;8.548;2023-07-28T14:14:20;99956.16;;;25.76
19568;BMP280;9930;49.240;8.548;2023-07-28T14:16:46;99949.38;;;25.70
19568;BMP280;9930;49.240;8.548;2023-07-28T14:19:14;99964.75;;;25.79
19568;BMP280;9930;49.240;8.548;2023-07-28T14:21:42;99968.22;;;25.80
19568;BMP280;9930;49.240;8.548;2023-07-28T14:24:10;99972.59;;;25.79
19568;BMP280;9930;49.240;8.548;2023-07-28T14:26:36;99966.34;;;25.84
19568;BMP280;9930;49.240;8.548;2023-07-28T14:29:04;99966.31;;;25.85
19568;BMP280;9930;49.240;8.548;2023-07-28T14:31:31;99967.16;;;25.86
19568;BMP280;9930;49.240;8.548;2023-07-28T14:33:57;99974.94;;;25.87